sensor_id;sensor_type;location;lat;lon;timestamp;pressure;altitude;pressure_sealevel;temperature;humidity
5283;BME280;15376;48.540;9.268;2022-12-26T00:01:26;97552.63;;;6.51;100.00
5283;BME280;15376;48.540;9.268;2022-12-26T00:03:54;97559.81;;;6.66;100.00
5283;BME280;15376;48.540;9.268;2022-12-26T00:06:23;97559.50;;;6.69;100.00
5283;BME280;15376;48.540;9.268;2022-12-26T00:08:48;97550.28;;;6.74;100.00
5283;BME280;15376;48.540;9.268;2022-12-26T00:11:14;97552.47;;;6.78;100.00
5283;BME280;15376;48.540;9.268;2022-12-26T00:13:40;97557.22;;;6.75;100.00
5283;BME280;15376;48.540;9.268;2022-12-26T00:16:14;97554.69;;;6.65;100.00
5283;BME280;15376;48.540;9.268;2022-12-26T00:18:40;97547.84;;;6.54;100.00
5283;BME280;15376;48.540;9.268;2022-12-26T00:21:07;97544.50;;;6.44;100.00
5283;BME280;15376;48.540;9.268;2022-12-26T00:23:34;97555.56;;;6.48;100.00
5283;BME280;15376;48.540;9.268;2022-12-26T00:26:04;97554.63;;;6.57;100.00
5283;BME280;15376;48.540;9.268;2022-12-26T00:28:31;97543.47;;;6.63;100.00
5283;BME280;15376;48.540;9.268;2022-12-26T00:30:56;97534.09;;;6.68;100.00
5283;BME280;15376;48.540;9.268;2022-12-26T00:33:21;97543.38;;;6.81;100.00
5283;BME280;15376;48.540;9.268;2022-12-26T00:35:47;97545.53;;;6.85;100.00
5283;BME280;15376;48.540;9.268;2022-12-26T00:38:12;97533.31;;;6.76;100.00
5283;BME280;15376;48.540;9.268;2022-12-26T00:40:37;97548.50;;;6.82;100.00
5283;BME280;15376;48.540;9.268;2022-12-26T00:43:08;97556.41;;;6.82;100.00
5283;BME280;15376;48.540;9.268;2022-12-26T00:45:33;97541.91;;;6.78;100.00
5283;BME280;15376;48.540;9.268;2022-12-26T00:47:58;97541.75;;;6.80;100.00
5283;BME280;15376;48.540;9.268;2022-12-26T00:50:24;97552.13;;;6.81;100.00
5283;BME280;15376;48.540;9.268;2022-12-26T00:52:49;97540.56;;;6.74;100.00
5283;BME280;15376;48.540;9.268;2022-12-26T00:55:15;97537.56;;;6.69;100.00
5283;BME280;15376;48.540;9.268;2022-12-26T00:57:40;97543.16;;;6.66;100.00
5283;BME280;15376;48.540;9.268;2022-12-26T01:00:06;97540.31;;;6.59;100.00
5283;BME280;15376;48.540;9.268;2022-12-26T01:02:32;97543.47;;;6.63;100.00
5283;BME280;15376;48.540;9.268;2022-12-26T01:05:07;97518.69;;;6.56;100.00
5283;BME280;15376;48.540;9.268;2022-12-26T01:07:37;97530.22;;;6.55;100.00
5283;BME280;15376;48.540;9.268;2022-12-26T01:10:03;97532.53;;;6.58;100.00
5283;BME280;15376;48.540;9.268;2022-12-26T01:12:29;97504.78;;;6.46;100.00
5283;BME280;15376;48.540;9.268;2022-12-26T01:14:56;97526.13;;;6.60;100.00
5283;BME280;15376;48.540;9.268;2022-12-26T01:17:21;97530.53;;;6.52;100.00
5283;BME280;15376;48.540;9.268;2022-12-26T01:19:47;97526.53;;;6.40;100.00
5283;BME280;15376;48.540;9.268;2022-12-26T01:22:12;97550.13;;;6.49;100.00
5283;BME280;15376;48.540;9.268;2022-12-26T01:24:38;97540.72;;;6.47;100.00
5283;BME280;15376;48.540;9.268;2022-12-26T01:27:03;97537.06;;;6.40;100.00
5283;BME280;15376;48.540;9.268;2022-12-26T01:29:28;97500.03;;;6.23;100.00
5283;BME280;15376;48.540;9.268;2022-12-26T01:31:54;97550.28;;;6.48;100.00
5283;BME280;15376;48.540;9.268;2022-12-26T01:34:20;97547.63;;;6.40;100.00
5283;BME280;15376;48.540;9.268;2022-12-26T01:36:45;97550.41;;;6.38;100.00
5283;BME280;15376;48.540;9.268;2022-12-26T01:39:10;97544.63;;;6.34;100.00
5283;BME280;15376;48.540;9.268;2022-12-26T01:41:36;97529.28;;;6.12;100.00
5283;BME280;15376;48.540;9.268;2022-12-26T01:44:05;97556.09;;;6.25;100.00
5283;BME280;15376;48.540;9.268;2022-12-26T01:46:43;97554.91;;;6.20;100.00
5283;BME280;15376;48.540;9.268;2022-12-26T01:51:54;97552.03;;;6.13;100.00
5283;BME280;15376;48.540;9.268;2022-12-26T01:54:23;97565.50;;;6.28;100.00
5283;BME280;15376;48.540;9.268;2022-12-26T01:56:50;97566.84;;;6.32;100.00
5283;BME280;15376;48.540;9.268;2022-12-26T01:59:22;97565.19;;;6.31;100.00
5283;BME280;15376;48.540;9.268;2022-12-26T02:01:52;97567.31;;;6.27;100.00
5283;BME280;15376;48.540;9.268;2022-12-26T02:04:21;97550.81;;;6.25;100.00
5283;BME280;15376;48.540;9.268;2022-12-26T02:07:08;97524.84;;;6.13;100.00
5283;BME280;15376;48.540;9.268;2022-12-26T02:09:35;97555.84;;;6.37;100.00
5283;BME280;15376;48.540;9.268;2022-12-26T02:12:07;97562.81;;;6.46;100.00
5283;BME280;15376;48.540;9.268;2022-12-26T02:14:37;97558.50;;;6.45;100.00
5283;BME280;15376;48.540;9.268;2022-12-26T02:17:03;97550.88;;;6.33;100.00
5283;BME280;15376;48.540;9.268;2022-12-26T02:27:46;97541.28;;;6.58;100.00
5283;BME280;15376;48.540;9.268;2022-12-26T02:31:26;97542.72;;;6.79;100.00
5283;BME280;15376;48.540;9.268;2022-12-26T02:36:18;97534.81;;;6.87;100.00
5283;BME280;15376;48.540;9.268;2022-12-26T02:45:08;97561.25;;;6.95;100.00
5283;BME280;15376;48.540;9.268;2022-12-26T02:51:01;97560.56;;;7.19;100.00
5283;BME280;15376;48.540;9.268;2022-12-26T02:57:06;97516.97;;;7.15;100.00
5283;BME280;15376;48.540;9.268;2022-12-26T03:00:01;97550.38;;;7.40;100.00
5283;BME280;15376;48.540;9.268;2022-12-26T03:06:12;97569.25;;;7.69;100.00
5283;BME280;15376;48.540;9.268;2022-12-26T03:09:01;97544.97;;;7.82;100.00
5283;BME280;15376;48.540;9.268;2022-12-26T03:11:57;97557.22;;;7.91;100.00
5283;BME280;15376;48.540;9.268;2022-12-26T03:14:47;97559.84;;;8.32;100.00
5283;BME280;15376;48.540;9.268;2022-12-26T03:17:21;97545.31;;;8.44;100.00
5283;BME280;15376;48.540;9.268;2022-12-26T03:19:58;97540.94;;;8.76;100.00
5283;BME280;15376;48.540;9.268;2022-12-26T03:25:12;97536.81;;;8.73;100.00
5283;BME280;15376;48.540;9.268;2022-12-26T03:27:58;97541.97;;;8.58;100.00
5283;BME280;15376;48.540;9.268;2022-12-26T03:30:24;97532.53;;;8.56;100.00
5283;BME280;15376;48.540;9.268;2022-12-26T03:33:08;97520.66;;;8.44;100.00
5283;BME280;15376;48.540;9.268;2022-12-26T03:35:52;97533.94;;;8.35;100.00
5283;BME280;15376;48.540;9.268;2022-12-26T03:38:19;97514.41;;;8.20;100.00
5283;BME280;15376;48.540;9.268;2022-12-26T03:40:52;97500.19;;;8.05;100.00
5283;BME280;15376;48.540;9.268;2022-12-26T03:43:46;97518.69;;;8.21;100.00
5283;BME280;15376;48.540;9.268;2022-12-26T03:46:41;97516.72;;;8.15;100.00
5283;BME280;15376;48.540;9.268;2022-12-26T03:49:34;97523.00;;;8.06;100.00
5283;BME280;15376;48.540;9.268;2022-12-26T03:52:29;97514.41;;;8.04;100.00
5283;BME280;15376;48.540;9.268;2022-12-26T03:55:48;97513.75;;;7.94;100.00
5283;BME280;15376;48.540;9.268;2022-12-26T03:58:48;97521.00;;;8.00;100.00
5283;BME280;15376;48.540;9.268;2022-12-26T04:01:36;97521.50;;;8.03;100.00
5283;BME280;15376;48.540;9.268;2022-12-26T04:04:24;97533.25;;;8.09;100.00
5283;BME280;15376;48.540;9.268;2022-12-26T04:07:20;97528.78;;;8.10;100.00
5283;BME280;15376;48.540;9.268;2022-12-26T04:10:19;97532.25;;;8.18;100.00
5283;BME280;15376;48.540;9.268;2022-12-26T04:13:12;97526.63;;;8.21;100.00
5283;BME280;15376;48.540;9.268;2022-12-26T04:16:07;97530.91;;;8.30;100.00
5283;BME280;15376;48.540;9.268;2022-12-26T04:19:16;97545.50;;;8.34;100.00
5283;BME280;15376;48.540;9.268;2022-12-26T04:22:12;97550.13;;;8.32;100.00
5283;BME280;15376;48.540;9.268;2022-12-26T04:25:06;97547.78;;;8.29;100.00
5283;BME280;15376;48.540;9.268;2022-12-26T04:27:52;97547.78;;;8.29;100.00
5283;BME280;15376;48.540;9.268;2022-12-26T04:30:39;97545.97;;;8.30;100.00
5283;BME280;15376;48.540;9.268;2022-12-26T04:33:30;97551.47;;;8.37;100.00
5283;BME280;15376;48.540;9.268;2022-12-26T04:36:41;97544.31;;;8.21;100.00
5283;BME280;15376;48.540;9.268;2022-12-26T04:39:30;97543.50;;;8.12;100.00
5283;BME280;15376;48.540;9.268;2022-12-26T04:42:17;97545.47;;;8.10;100.00
5283;BME280;15376;48.540;9.268;2022-12-26T04:45:03;97555.88;;;8.12;100.00
5283;BME280;15376;48.540;9.268;2022-12-26T04:47:30;97564.16;;;8.09;100.00
5283;BME280;15376;48.540;9.268;2022-12-26T04:49:56;97560.84;;;8.07;100.00
5283;BME280;15376;48.540;9.268;2022-12-26T04:52:38;97545.97;;;8.06;100.00
5283;BME280;15376;48.540;9.268;2022-12-26T04:55:22;97550.25;;;8.07;100.00
5283;BME280;15376;48.540;9.268;2022-12-26T04:57:47;97552.91;;;8.15;100.00
5283;BME280;15376;48.540;9.268;2022-12-26T05:00:13;97553.75;;;8.15;100.00
5283;BME280;15376;48.540;9.268;2022-12-26T05:02:38;97552.41;;;8.11;100.00
5283;BME280;15376;48.540;9.268;2022-12-26T05:05:22;97548.78;;;8.12;100.00
5283;BME280;15376;48.540;9.268;2022-12-26T05:08:22;97543.66;;;8.11;100.00
5283;BME280;15376;48.540;9.268;2022-12-26T05:11:07;97560.34;;;8.27;100.00
5283;BME280;15376;48.540;9.268;2022-12-26T05:13:32;97554.41;;;8.25;100.00
5283;BME280;15376;48.540;9.268;2022-12-26T05:15:58;97551.78;;;8.33;100.00
5283;BME280;15376;48.540;9.268;2022-12-26T05:18:42;97550.75;;;8.26;100.00
5283;BME280;15376;48.540;9.268;2022-12-26T05:21:26;97518.72;;;8.38;100.00
5283;BME280;15376;48.540;9.268;2022-12-26T05:24:09;97529.91;;;8.48;100.00
5283;BME280;15376;48.540;9.268;2022-12-26T05:26:54;97525.63;;;8.47;100.00
5283;BME280;15376;48.540;9.268;2022-12-26T05:29:39;97511.44;;;8.40;100.00
5283;BME280;15376;48.540;9.268;2022-12-26T05:32:04;97522.31;;;8.45;100.00
5283;BME280;15376;48.540;9.268;2022-12-26T05:34:30;97512.41;;;8.39;100.00
5283;BME280;15376;48.540;9.268;2022-12-26T05:36:57;97525.94;;;8.52;100.00
5283;BME280;15376;48.540;9.268;2022-12-26T05:39:23;97528.44;;;8.45;100.00
5283;BME280;15376;48.540;9.268;2022-12-26T05:41:48;97534.06;;;8.42;100.00
5283;BME280;15376;48.540;9.268;2022-12-26T05:44:13;97525.63;;;8.30;100.00
5283;BME280;15376;48.540;9.268;2022-12-26T05:46:39;97520.03;;;8.33;100.00
5283;BME280;15376;48.540;9.268;2022-12-26T05:49:06;97505.13;;;8.41;100.00
5283;BME280;15376;48.540;9.268;2022-12-26T05:51:32;97522.81;;;8.48;100.00
5283;BME280;15376;48.540;9.268;2022-12-26T05:53:58;97518.81;;;8.52;100.00
5283;BME280;15376;48.540;9.268;2022-12-26T05:56:24;97521.97;;;8.48;100.00
5283;BME280;15376;48.540;9.268;2022-12-26T05:58:57;97527.25;;;8.48;100.00
5283;BME280;15376;48.540;9.268;2022-12-26T06:01:23;97507.09;;;8.30;100.00
5283;BME280;15376;48.540;9.268;2022-12-26T06:03:52;97531.94;;;8.38;100.00
5283;BME280;15376;48.540;9.268;2022-12-26T06:06:19;97540.31;;;8.49;100.00
5283;BME280;15376;48.540;9.268;2022-12-26T06:08:52;97545.44;;;8.67;100.00
5283;BME280;15376;48.540;9.268;2022-12-26T06:11:18;97552.19;;;8.78;100.00
5283;BME280;15376;48.540;9.268;2022-12-26T06:13:43;97539.38;;;8.97;100.00
5283;BME280;15376;48.540;9.268;2022-12-26T06:16:12;97542.66;;;8.99;100.00
5283;BME280;15376;48.540;9.268;2022-12-26T06:18:38;97527.81;;;8.90;100.00
5283;BME280;15376;48.540;9.268;2022-12-26T06:21:09;97540.19;;;8.98;100.00
5283;BME280;15376;48.540;9.268;2022-12-26T06:23:36;97533.72;;;9.00;100.00
5283;BME280;15376;48.540;9.268;2022-12-26T06:26:02;97529.75;;;9.05;100.00
5283;BME280;15376;48.540;9.268;2022-12-26T06:28:28;97536.38;;;9.00;100.00
5283;BME280;15376;48.540;9.268;2022-12-26T06:30:53;97536.00;;;9.12;100.00
5283;BME280;15376;48.540;9.268;2022-12-26T06:33:25;97539.06;;;9.23;100.00
5283;BME280;15376;48.540;9.268;2022-12-26T06:35:50;97538.72;;;9.26;100.00
5283;BME280;15376;48.540;9.268;2022-12-26T06:38:16;97548.34;;;9.27;100.00
5283;BME280;15376;48.540;9.268;2022-12-26T06:40:41;97546.50;;;9.28;100.00
5283;BME280;15376;48.540;9.268;2022-12-26T06:43:07;97553.50;;;9.21;100.00
5283;BME280;15376;48.540;9.268;2022-12-26T06:45:34;97553.03;;;9.17;100.00
5283;BME280;15376;48.540;9.268;2022-12-26T06:47:59;97547.59;;;9.11;100.00
5283;BME280;15376;48.540;9.268;2022-12-26T06:50:25;97552.94;;;9.02;100.00
5283;BME280;15376;48.540;9.268;2022-12-26T06:52:50;97504.41;;;8.63;100.00
5283;BME280;15376;48.540;9.268;2022-12-26T06:55:16;97554.28;;;8.90;100.00
5283;BME280;15376;48.540;9.268;2022-12-26T06:57:41;97539.78;;;8.78;100.00
5283;BME280;15376;48.540;9.268;2022-12-26T07:00:07;97552.38;;;8.76;100.00
5283;BME280;15376;48.540;9.268;2022-12-26T07:02:32;97546.91;;;8.69;100.00
5283;BME280;15376;48.540;9.268;2022-12-26T07:04:58;97560.66;;;8.73;100.00
5283;BME280;15376;48.540;9.268;2022-12-26T07:07:23;97550.88;;;8.74;100.00
5283;BME280;15376;48.540;9.268;2022-12-26T07:09:48;97555.66;;;8.78;100.00
5283;BME280;15376;48.540;9.268;2022-12-26T07:12:14;97558.28;;;8.86;100.00
5283;BME280;15376;48.540;9.268;2022-12-26T07:14:39;97530.03;;;8.79;100.00
5283;BME280;15376;48.540;9.268;2022-12-26T07:17:04;97528.38;;;8.69;100.00
5283;BME280;15376;48.540;9.268;2022-12-26T07:19:30;97552.69;;;8.73;100.00
5283;BME280;15376;48.540;9.268;2022-12-26T07:21:55;97540.78;;;8.69;100.00
5283;BME280;15376;48.540;9.268;2022-12-26T07:24:21;97548.41;;;8.72;100.00
5283;BME280;15376;48.540;9.268;2022-12-26T07:26:48;97540.94;;;8.76;100.00
5283;BME280;15376;48.540;9.268;2022-12-26T07:29:14;97549.06;;;8.74;100.00
5283;BME280;15376;48.540;9.268;2022-12-26T07:31:40;97554.53;;;8.73;100.00
5283;BME280;15376;48.540;9.268;2022-12-26T07:34:05;97546.91;;;8.69;100.00
5283;BME280;15376;48.540;9.268;2022-12-26T07:36:31;97533.50;;;8.71;100.00
5283;BME280;15376;48.540;9.268;2022-12-26T07:38:57;97533.53;;;8.63;100.00
5283;BME280;15376;48.540;9.268;2022-12-26T07:41:22;97549.72;;;8.68;100.00
5283;BME280;15376;48.540;9.268;2022-12-26T07:44:08;97544.63;;;8.58;100.00
5283;BME280;15376;48.540;9.268;2022-12-26T07:46:33;97552.91;;;8.55;100.00
5283;BME280;15376;48.540;9.268;2022-12-26T07:48:58;97526.94;;;8.43;100.00
5283;BME280;15376;48.540;9.268;2022-12-26T07:51:24;97554.53;;;8.56;100.00
5283;BME280;15376;48.540;9.268;2022-12-26T07:53:49;97547.59;;;8.55;100.00
5283;BME280;15376;48.540;9.268;2022-12-26T07:56:15;97543.78;;;8.58;100.00
5283;BME280;15376;48.540;9.268;2022-12-26T07:58:40;97559.97;;;8.71;100.00
5283;BME280;15376;48.540;9.268;2022-12-26T08:01:06;97563.78;;;8.77;100.00
5283;BME280;15376;48.540;9.268;2022-12-26T08:03:32;97560.47;;;8.75;100.00
5283;BME280;15376;48.540;9.268;2022-12-26T08:05:58;97560.31;;;8.76;100.00
5283;BME280;15376;48.540;9.268;2022-12-26T08:08:24;97570.25;;;8.74;100.00
5283;BME280;15376;48.540;9.268;2022-12-26T08:11:00;97565.78;;;8.75;100.00
5283;BME280;15376;48.540;9.268;2022-12-26T08:13:29;97570.25;;;8.74;100.00
5283;BME280;15376;48.540;9.268;2022-12-26T08:15:55;97550.41;;;8.62;100.00
5283;BME280;15376;48.540;9.268;2022-12-26T08:18:21;97579.84;;;8.75;100.00
5283;BME280;15376;48.540;9.268;2022-12-26T08:20:46;97576.19;;;8.76;100.00
5283;BME280;15376;48.540;9.268;2022-12-26T08:23:11;97570.56;;;8.71;100.00
5283;BME280;15376;48.540;9.268;2022-12-26T08:25:37;97569.53;;;8.80;100.00
5283;BME280;15376;48.540;9.268;2022-12-26T08:28:02;97570.31;;;8.97;100.00
5283;BME280;15376;48.540;9.268;2022-12-26T08:30:27;97579.91;;;9.06;100.00
5283;BME280;15376;48.540;9.268;2022-12-26T08:32:53;97558.56;;;8.99;100.00
5283;BME280;15376;48.540;9.268;2022-12-26T08:35:18;97573.34;;;9.25;100.00
5283;BME280;15376;48.540;9.268;2022-12-26T08:37:46;97580.31;;;9.26;100.00
5283;BME280;15376;48.540;9.268;2022-12-26T08:40:11;97591.91;;;9.25;100.00
5283;BME280;15376;48.540;9.268;2022-12-26T08:42:36;97587.59;;;9.24;100.00
5283;BME280;15376;48.540;9.268;2022-12-26T08:45:02;97600.72;;;9.17;100.00
5283;BME280;15376;48.540;9.268;2022-12-26T08:47:27;97600.25;;;9.06;100.00
5283;BME280;15376;48.540;9.268;2022-12-26T08:49:52;97566.59;;;8.75;100.00
5283;BME280;15376;48.540;9.268;2022-12-26T08:52:18;97617.66;;;9.00;100.00
5283;BME280;15376;48.540;9.268;2022-12-26T08:54:43;97623.44;;;9.03;100.00
5283;BME280;15376;48.540;9.268;2022-12-26T08:57:08;97632.22;;;8.96;100.00
5283;BME280;15376;48.540;9.268;2022-12-26T08:59:34;97594.06;;;8.66;100.00
5283;BME280;15376;48.540;9.268;2022-12-26T09:01:59;97647.34;;;8.79;100.00
5283;BME280;15376;48.540;9.268;2022-12-26T09:04:25;97650.66;;;8.73;100.00
5283;BME280;15376;48.540;9.268;2022-12-26T09:06:50;97660.44;;;8.64;100.00
5283;BME280;15376;48.540;9.268;2022-12-26T09:09:16;97669.19;;;8.57;100.00
5283;BME280;15376;48.540;9.268;2022-12-26T09:11:41;97667.69;;;8.54;100.00
5283;BME280;15376;48.540;9.268;2022-12-26T09:14:07;97670.84;;;8.50;100.00
5283;BME280;15376;48.540;9.268;2022-12-26T09:16:38;97676.78;;;8.52;100.00
5283;BME280;15376;48.540;9.268;2022-12-26T09:19:09;97677.94;;;8.49;100.00
5283;BME280;15376;48.540;9.268;2022-12-26T09:21:36;97666.56;;;8.32;100.00
5283;BME280;15376;48.540;9.268;2022-12-26T09:24:05;97678.13;;;8.40;100.00
5283;BME280;15376;48.540;9.268;2022-12-26T09:26:31;97667.66;;;8.30;100.00
5283;BME280;15376;48.540;9.268;2022-12-26T09:28:57;97685.41;;;8.38;100.00
5283;BME280;15376;48.540;9.268;2022-12-26T09:31:28;97681.78;;;8.39;100.00
5283;BME280;15376;48.540;9.268;2022-12-26T09:33:55;97678.94;;;8.40;100.00
5283;BME280;15376;48.540;9.268;2022-12-26T09:36:23;97677.44;;;8.46;100.00
5283;BME280;15376;48.540;9.268;2022-12-26T09:38:49;97688.03;;;8.54;100.00
5283;BME280;15376;48.540;9.268;2022-12-26T09:44:29;97688.72;;;8.40;100.00
5283;BME280;15376;48.540;9.268;2022-12-26T09:52:54;97727.94;;;8.60;100.00
5283;BME280;15376;48.540;9.268;2022-12-26T09:55:56;97728.75;;;8.69;100.00
5283;BME280;15376;48.540;9.268;2022-12-26T09:58:32;97730.72;;;8.83;100.00
5283;BME280;15376;48.540;9.268;2022-12-26T10:01:07;97730.22;;;8.88;100.00
5283;BME280;15376;48.540;9.268;2022-12-26T10:03:39;97727.09;;;8.92;100.00
5283;BME280;15376;48.540;9.268;2022-12-26T10:06:22;97707.56;;;8.85;100.00
5283;BME280;15376;48.540;9.268;2022-12-26T10:25:24;97735.69;;;9.11;100.00
5283;BME280;15376;48.540;9.268;2022-12-26T10:27:52;97746.13;;;9.04;100.00
5283;BME280;15376;48.540;9.268;2022-12-26T10:30:26;97745.97;;;9.14;100.00
5283;BME280;15376;48.540;9.268;2022-12-26T10:32:58;97756.56;;;9.14;100.00
5283;BME280;15376;48.540;9.268;2022-12-26T10:35:33;97777.38;;;9.25;100.00
5283;BME280;15376;48.540;9.268;2022-12-26T10:40:41;97772.44;;;9.22;100.00
5283;BME280;15376;48.540;9.268;2022-12-26T10:48:34;97797.09;;;9.39;100.00
5283;BME280;15376;48.540;9.268;2022-12-26T10:50:59;97791.97;;;9.29;100.00
5283;BME280;15376;48.540;9.268;2022-12-26T10:53:24;97798.91;;;9.46;100.00
5283;BME280;15376;48.540;9.268;2022-12-26T10:55:50;97808.69;;;9.21;100.00
5283;BME280;15376;48.540;9.268;2022-12-26T10:58:27;97837.03;;;9.05;100.00
5283;BME280;15376;48.540;9.268;2022-12-26T11:00:53;97843.13;;;8.97;100.00
5283;BME280;15376;48.540;9.268;2022-12-26T11:03:19;97820.78;;;8.91;100.00
5283;BME280;15376;48.540;9.268;2022-12-26T11:08:26;97850.94;;;9.07;100.00
5283;BME280;15376;48.540;9.268;2022-12-26T11:11:04;97845.81;;;9.05;100.00
5283;BME280;15376;48.540;9.268;2022-12-26T11:13:34;97819.28;;;8.97;100.00
5283;BME280;15376;48.540;9.268;2022-12-26T11:16:01;97841.00;;;9.09;100.00
5283;BME280;15376;48.540;9.268;2022-12-26T11:18:33;97838.84;;;9.12;100.00
5283;BME280;15376;48.540;9.268;2022-12-26T11:21:20;97827.75;;;9.17;100.00
5283;BME280;15376;48.540;9.268;2022-12-26T11:23:48;97815.19;;;9.19;100.00
5283;BME280;15376;48.540;9.268;2022-12-26T11:28:44;97805.88;;;9.39;100.00
5283;BME280;15376;48.540;9.268;2022-12-26T11:31:22;97804.03;;;9.48;100.00
5283;BME280;15376;48.540;9.268;2022-12-26T11:33:51;97780.84;;;9.50;100.00
5283;BME280;15376;48.540;9.268;2022-12-26T11:36:22;97781.66;;;9.58;100.00
5283;BME280;15376;48.540;9.268;2022-12-26T11:38:55;97768.41;;;9.58;100.00
5283;BME280;15376;48.540;9.268;2022-12-26T11:46:43;97788.25;;;9.62;100.00
5283;BME280;15376;48.540;9.268;2022-12-26T11:49:34;97781.28;;;9.61;100.00
5283;BME280;15376;48.540;9.268;2022-12-26T11:52:04;97787.59;;;9.60;100.00
5283;BME280;15376;48.540;9.268;2022-12-26T11:54:48;97792.06;;;9.60;100.00
5283;BME280;15376;48.540;9.268;2022-12-26T11:57:40;97781.66;;;9.58;100.00
5283;BME280;15376;48.540;9.268;2022-12-26T12:00:18;97771.41;;;9.55;100.00
5283;BME280;15376;48.540;9.268;2022-12-26T12:02:44;97765.28;;;9.47;100.00
5283;BME280;15376;48.540;9.268;2022-12-26T12:05:32;97772.06;;;9.49;100.00
5283;BME280;15376;48.540;9.268;2022-12-26T12:08:22;97781.34;;;9.53;100.00
5283;BME280;15376;48.540;9.268;2022-12-26T12:11:21;97778.19;;;9.50;100.00
5283;BME280;15376;48.540;9.268;2022-12-26T12:14:09;97762.28;;;9.50;100.00
5283;BME280;15376;48.540;9.268;2022-12-26T12:16:46;97753.19;;;9.44;100.00
5283;BME280;15376;48.540;9.268;2022-12-26T12:19:50;97744.56;;;9.42;100.00
5283;BME280;15376;48.540;9.268;2022-12-26T12:24:52;97778.38;;;9.40;100.00
5283;BME280;15376;48.540;9.268;2022-12-26T12:27:46;97779.53;;;9.38;100.00
5283;BME280;15376;48.540;9.268;2022-12-26T12:30:22;97751.38;;;9.20;100.00
5283;BME280;15376;48.540;9.268;2022-12-26T12:38:29;97731.34;;;9.34;100.00
5283;BME280;15376;48.540;9.268;2022-12-26T12:41:05;97737.81;;;9.31;100.00
5283;BME280;15376;48.540;9.268;2022-12-26T12:44:06;97739.28;;;9.26;100.00
5283;BME280;15376;48.540;9.268;2022-12-26T12:47:04;97723.91;;;9.21;100.00
5283;BME280;15376;48.540;9.268;2022-12-26T12:50:00;97722.72;;;9.24;100.00
5283;BME280;15376;48.540;9.268;2022-12-26T13:00:51;97718.09;;;9.26;100.00
5283;BME280;15376;48.540;9.268;2022-12-26T13:08:50;97710.81;;;9.28;100.00
5283;BME280;15376;48.540;9.268;2022-12-26T13:17:15;97741.28;;;9.32;100.00
5283;BME280;15376;48.540;9.268;2022-12-26T13:19:45;97735.47;;;9.28;100.00
5283;BME280;15376;48.540;9.268;2022-12-26T13:22:46;97734.31;;;9.31;100.00
5283;BME280;15376;48.540;9.268;2022-12-26T13:25:36;97746.41;;;9.33;100.00
5283;BME280;15376;48.540;9.268;2022-12-26T13:28:07;97746.25;;;9.27;100.00
5283;BME280;15376;48.540;9.268;2022-12-26T13:30:36;97733.66;;;9.29;100.00
5283;BME280;15376;48.540;9.268;2022-12-26T13:33:03;97693.63;;;9.16;100.00
5283;BME280;15376;48.540;9.268;2022-12-26T13:36:04;97689.59;;;9.36;100.00
5283;BME280;15376;48.540;9.268;2022-12-26T13:41:19;97672.38;;;9.32;100.00
5283;BME280;15376;48.540;9.268;2022-12-26T13:46:53;97669.88;;;9.39;100.00
5283;BME280;15376;48.540;9.268;2022-12-26T13:49:39;97700.03;;;9.38;100.00
5283;BME280;15376;48.540;9.268;2022-12-26T14:05:38;97679.72;;;9.61;100.00
5283;BME280;15376;48.540;9.268;2022-12-26T14:17:36;97681.25;;;9.55;100.00
5283;BME280;15376;48.540;9.268;2022-12-26T14:20:29;97682.91;;;9.56;100.00
5283;BME280;15376;48.540;9.268;2022-12-26T14:23:34;97685.91;;;9.53;100.00
5283;BME280;15376;48.540;9.268;2022-12-26T14:26:37;97686.22;;;9.58;100.00
5283;BME280;15376;48.540;9.268;2022-12-26T14:41:00;97682.91;;;9.56;100.00
5283;BME280;15376;48.540;9.268;2022-12-26T14:43:34;97656.94;;;9.44;100.00
5283;BME280;15376;48.540;9.268;2022-12-26T14:46:02;97676.63;;;9.49;100.00
5283;BME280;15376;48.540;9.268;2022-12-26T14:53:34;97667.84;;;9.49;100.00
5283;BME280;15376;48.540;9.268;2022-12-26T14:56:30;97671.31;;;9.57;100.00
5283;BME280;15376;48.540;9.268;2022-12-26T14:59:28;97659.41;;;9.45;100.00
5283;BME280;15376;48.540;9.268;2022-12-26T15:02:30;97678.13;;;9.44;100.00
5283;BME280;15376;48.540;9.268;2022-12-26T15:05:09;97663.41;;;9.41;100.00
5283;BME280;15376;48.540;9.268;2022-12-26T15:13:47;97642.97;;;9.58;100.00
5283;BME280;15376;48.540;9.268;2022-12-26T15:19:15;97633.59;;;9.39;100.00
5283;BME280;15376;48.540;9.268;2022-12-26T15:35:20;97647.69;;;9.31;100.00
5283;BME280;15376;48.540;9.268;2022-12-26T15:40:53;97649.34;;;9.32;100.00
5283;BME280;15376;48.540;9.268;2022-12-26T15:46:32;97664.16;;;9.19;100.00
5283;BME280;15376;48.540;9.268;2022-12-26T15:51:51;97654.56;;;9.10;100.00
5283;BME280;15376;48.540;9.268;2022-12-26T15:57:12;97652.34;;;9.21;100.00
5283;BME280;15376;48.540;9.268;2022-12-26T16:05:05;97662.53;;;9.01;100.00
5283;BME280;15376;48.540;9.268;2022-12-26T16:07:56;97665.00;;;9.11;100.00
5283;BME280;15376;48.540;9.268;2022-12-26T16:15:55;97660.38;;;8.97;100.00
5283;BME280;15376;48.540;9.268;2022-12-26T16:18:27;97670.47;;;8.93;100.00
5283;BME280;15376;48.540;9.268;2022-12-26T16:20:56;97683.56;;;8.87;100.00
5283;BME280;15376;48.540;9.268;2022-12-26T16:23:42;97678.09;;;8.88;100.00
5283;BME280;15376;48.540;9.268;2022-12-26T16:26:16;97665.88;;;8.79;100.00
5283;BME280;15376;48.540;9.268;2022-12-26T16:28:45;97689.72;;;8.79;100.00
5283;BME280;15376;48.540;9.268;2022-12-26T16:31:20;97686.69;;;8.90;100.00
5283;BME280;15376;48.540;9.268;2022-12-26T16:33:49;97674.44;;;8.89;100.00
5283;BME280;15376;48.540;9.268;2022-12-26T16:36:22;97660.91;;;8.68;100.00
5283;BME280;15376;48.540;9.268;2022-12-26T16:38:49;97683.91;;;8.76;100.00
5283;BME280;15376;48.540;9.268;2022-12-26T16:41:26;97690.38;;;8.65;100.00
5283;BME280;15376;48.540;9.268;2022-12-26T16:43:54;97689.69;;;8.55;100.00
5283;BME280;15376;48.540;9.268;2022-12-26T16:46:22;97685.41;;;8.54;100.00
5283;BME280;15376;48.540;9.268;2022-12-26T16:48:57;97690.84;;;8.44;100.00
5283;BME280;15376;48.540;9.268;2022-12-26T16:51:44;97703.59;;;8.57;100.00
5283;BME280;15376;48.540;9.268;2022-12-26T16:59:35;97687.63;;;8.08;100.00
5283;BME280;15376;48.540;9.268;2022-12-26T17:02:02;97702.28;;;8.37;100.00
5283;BME280;15376;48.540;9.268;2022-12-26T17:04:29;97701.28;;;8.38;100.00